Time;durP1;ratioP1;P1;durP2;ratioP2;P2;SDS_P1;SDS_P2;PMS_P1;PMS_P2;Temp;Humidity;BMP_temperature;BMP_pressure;BME280_temperature;BME280_humidity;BME280_pressure;Samples;Min_cycle;Max_cycle;Signal;HPM_P1;HPM_P2
2024/01/01 00:01:15;;;;;;;21.13;4.70;;;;;;;5.84;100.00;99654.78;5081754;28;20040;-78
2024/01/01 00:03:43;;;;;;;15.20;2.90;;;;;;;5.84;100.00;99670.91;5082027;28;20277;-78
2024/01/01 00:06:09;;;;;;;11.15;1.90;;;;;;;5.83;100.00;99704.25;5099369;28;20020;-78
2024/01/01 00:08:34;;;;;;;13.98;1.80;;;;;;;5.75;100.00;99691.84;5099190;28;20030;-78
2024/01/01 00:11:00;;;;;;;6.50;1.57;;;;;;;5.66;100.00;99699.34;5098891;28;20127;-78
2024/01/01 00:13:25;;;;;;;4.67;1.10;;;;;;;5.72;100.00;99733.47;5098730;28;20028;-79
2024/01/01 00:15:50;;;;;;;6.43;1.37;;;;;;;5.58;100.00;99729.16;5116984;28;20471;-78
2024/01/01 00:18:16;;;;;;;4.97;1.00;;;;;;;5.53;100.00;99692.13;5098998;28;20278;-78
2024/01/01 00:20:41;;;;;;;4.37;1.33;;;;;;;5.48;100.00;99701.84;5098759;28;20031;-78
2024/01/01 00:23:07;;;;;;;5.40;1.30;;;;;;;5.43;100.00;99734.75;5115673;28;20122;-78
2024/01/01 00:25:36;;;;;;;8.30;1.77;;;;;;;5.32;100.00;99721.97;5098583;28;20031;-78
2024/01/01 00:28:05;;;;;;;29.77;16.00;;;;;;;5.24;100.00;99718.47;5098978;28;20551;-78
2024/01/01 00:30:31;;;;;;;6.60;2.83;;;;;;;5.21;100.00;99697.34;5098525;28;20038;-78
2024/01/01 00:32:56;;;;;;;28.80;6.90;;;;;;;5.10;100.00;99711.41;5098207;28;20032;-78
2024/01/01 00:35:22;;;;;;;15.47;3.67;;;;;;;5.06;100.00;99705.66;5082029;28;20125;-80
2024/01/01 00:37:47;;;;;;;17.98;5.88;;;;;;;5.07;100.00;99717.22;5097940;28;20285;-78
2024/01/01 00:40:12;;;;;;;12.97;3.43;;;;;;;5.03;100.00;99707.91;5098586;28;20036;-78
2024/01/01 00:42:38;;;;;;;11.47;3.17;;;;;;;5.00;100.00;99721.75;5116432;28;20031;-78
2024/01/01 00:45:04;;;;;;;11.07;2.77;;;;;;;4.99;100.00;99702.13;5098626;28;20443;-78
2024/01/01 00:47:30;;;;;;;8.60;2.83;;;;;;;4.95;100.00;99718.88;5098839;28;20490;-78
2024/01/01 00:50:00;;;;;;;9.48;1.92;;;;;;;4.90;100.00;99719.47;5116353;28;20035;-78
2024/01/01 00:52:25;;;;;;;10.53;1.83;;;;;;;4.87;100.00;99691.16;5082554;28;20512;-78
2024/01/01 00:54:51;;;;;;;7.90;2.47;;;;;;;4.88;100.00;99714.31;5116427;28;20031;-78
2024/01/01 00:57:17;;;;;;;10.23;2.60;;;;;;;4.86;100.00;99699.44;5081546;28;20031;-78
2024/01/01 00:59:42;;;;;;;12.00;3.17;;;;;;;4.80;100.00;99710.97;5097900;28;20031;-78
2024/01/01 01:02:08;;;;;;;6.73;2.93;;;;;;;4.82;100.00;99690.13;5097254;28;20414;-77
2024/01/01 01:04:33;;;;;;;6.70;2.00;;;;;;;4.83;100.00;99703.34;5097723;28;20383;-78
2024/01/01 01:06:58;;;;;;;8.77;2.53;;;;;;;4.81;100.00;99707.28;5097478;28;20089;-78
2024/01/01 01:09:24;;;;;;;10.10;3.53;;;;;;;4.80;100.00;99700.22;5097656;28;20024;-78
2024/01/01 01:11:49;;;;;;;7.47;2.63;;;;;;;4.82;100.00;99714.31;5115855;28;20107;-78
2024/01/01 01:14:14;;;;;;;10.73;3.27;;;;;;;4.81;100.00;99712.66;5097267;28;20028;-79
2024/01/01 01:16:40;;;;;;;10.33;2.93;;;;;;;4.84;100.00;99714.94;5115737;28;20089;-78
2024/01/01 01:19:05;;;;;;;10.43;2.83;;;;;;;4.88;100.00;99708.94;5097795;28;20048;-78
2024/01/01 01:21:31;;;;;;;7.10;2.07;;;;;;;4.97;100.00;99711.44;5115366;28;20118;-78
2024/01/01 01:23:58;;;;;;;7.43;2.23;;;;;;;4.96;100.00;99718.66;5097689;28;20049;-78
2024/01/01 01:26:23;;;;;;;8.07;2.08;;;;;;;5.03;100.00;99724.84;5115482;28;20089;-78
2024/01/01 01:28:49;;;;;;;7.22;2.47;;;;;;;5.16;100.00;99720.53;5115789;28;20448;-78
2024/01/01 01:31:14;;;;;;;11.47;2.33;;;;;;;5.22;100.00;99717.00;5097112;28;20032;-78
2024/01/01 01:33:39;;;;;;;8.63;2.20;;;;;;;5.24;100.00;99747.19;5097003;28;20084;-78
2024/01/01 01:36:05;;;;;;;6.87;1.80;;;;;;;5.19;100.00;99720.09;5097293;28;20081;-78
2024/01/01 01:38:34;;;;;;;11.98;2.10;;;;;;;5.03;100.00;99713.28;5097396;28;20122;-78
2024/01/01 01:40:59;;;;;;;8.13;2.15;;;;;;;5.03;100.00;99716.78;5097634;28;20024;-78
2024/01/01 01:43:25;;;;;;;10.03;2.10;;;;;;;4.92;100.00;99720.13;5114979;28;20043;-78
2024/01/01 01:45:52;;;;;;;7.97;2.03;;;;;;;4.98;100.00;99726.53;5079983;28;20085;-78
2024/01/01 01:48:18;;;;;;;6.50;1.40;;;;;;;4.95;100.00;99714.31;5096546;28;20036;-78
2024/01/01 01:50:48;;;;;;;7.55;1.75;;;;;;;4.90;100.00;99716.78;5096757;28;20471;-78
2024/01/01 01:53:14;;;;;;;6.75;1.42;;;;;;;4.96;100.00;99717.81;5115107;28;20066;-78
2024/01/01 01:55:43;;;;;;;7.83;1.33;;;;;;;4.88;100.00;99716.16;5097520;28;20337;-78
2024/01/01 01:58:12;;;;;;;12.40;1.73;;;;;;;4.89;100.00;99681.03;5114653;28;20149;-77
2024/01/01 02:00:38;;;;;;;7.38;1.60;;;;;;;4.93;100.00;99724.44;5097108;28;20028;-78
2024/01/01 02:03:06;;;;;;;8.80;1.42;;;;;;;4.95;100.00;99738.50;5115175;28;20036;-78
2024/01/01 02:05:31;;;;;;;9.45;1.30;;;;;;;5.07;100.00;99723.41;5096447;28;20032;-78
2024/01/01 02:07:57;;;;;;;13.23;2.40;;;;;;;5.13;100.00;99715.56;5114808;28;20379;-78
2024/01/01 02:10:22;;;;;;;9.23;1.17;;;;;;;5.11;100.00;99729.22;5115074;28;20034;-78
2024/01/01 02:12:48;;;;;;;9.75;1.80;;;;;;;5.14;100.00;99722.56;5096655;28;20096;-78
2024/01/01 02:15:13;;;;;;;8.97;1.20;;;;;;;5.14;100.00;99728.81;5095608;28;20043;-78
2024/01/01 02:17:38;;;;;;;12.73;1.53;;;;;;;5.20;100.00;99732.53;5112766;28;20028;-79
2024/01/01 02:20:05;;;;;;;11.27;1.87;;;;;;;5.22;100.00;99731.25;5079763;28;20049;-78
2024/01/01 02:22:40;;;;;;;12.80;2.10;;;;;;;5.29;100.00;99720.50;5096558;28;20020;-78
2024/01/01 02:25:08;;;;;;;11.05;1.70;;;;;;;5.24;100.00;99721.16;5114368;28;20034;-78
2024/01/01 02:27:35;;;;;;;11.13;1.53;;;;;;;5.26;100.00;99727.13;5095781;28;20031;-79
2024/01/01 02:30:01;;;;;;;8.00;1.40;;;;;;;5.18;100.00;99729.19;5114644;28;20105;-77
2024/01/01 02:32:26;;;;;;;11.97;1.30;;;;;;;5.19;100.00;99734.38;5114394;28;20472;-78
2024/01/01 02:34:51;;;;;;;14.90;1.55;;;;;;;5.22;100.00;99741.22;5096632;28;20425;-78
2024/01/01 02:37:17;;;;;;;16.63;1.87;;;;;;;5.22;100.00;99742.03;5096193;28;20039;-78
2024/01/01 02:39:42;;;;;;;14.10;1.57;;;;;;;5.19;100.00;99736.25;5114329;28;20077;-79
2024/01/01 02:42:07;;;;;;;14.07;1.67;;;;;;;5.18;100.00;99740.81;5096098;28;20069;-78
2024/01/01 02:44:33;;;;;;;17.43;1.77;;;;;;;5.15;100.00;99759.19;5095716;28;20157;-78
2024/01/01 02:46:58;;;;;;;14.87;1.23;;;;;;;5.17;100.00;99774.09;5096020;28;20464;-78
2024/01/01 02:49:23;;;;;;;12.03;1.33;;;;;;;5.16;100.00;99783.19;5114754;28;20036;-78
2024/01/01 02:51:49;;;;;;;12.02;1.52;;;;;;;5.15;100.00;99764.56;5114112;28;20039;-79
2024/01/01 02:54:15;;;;;;;8.88;1.73;;;;;;;5.16;100.00;99753.59;5079085;28;20459;-78
2024/01/01 02:56:40;;;;;;;21.07;1.93;;;;;;;5.13;100.00;99774.72;5114134;28;20039;-78
2024/01/01 02:59:05;;;;;;;11.02;1.45;;;;;;;5.15;100.00;99778.84;5114170;28;20031;-78
2024/01/01 03:01:31;;;;;;;13.55;1.40;;;;;;;5.17;100.00;99757.97;5096192;28;20031;-79
2024/01/01 03:03:56;;;;;;;20.63;2.00;;;;;;;5.16;100.00;99753.59;5114132;28;20034;-78
2024/01/01 03:06:21;;;;;;;13.37;1.73;;;;;;;5.10;100.00;99773.25;5114027;28;20040;-78
2024/01/01 03:08:47;;;;;;;20.13;2.30;;;;;;;5.06;100.00;99758.56;5095606;28;20036;-85
2024/01/01 03:11:12;;;;;;;15.43;1.67;;;;;;;5.07;100.00;99752.97;5095592;28;20216;-85
2024/01/01 03:13:38;;;;;;;20.73;2.00;;;;;;;5.07;100.00;99755.69;5095896;28;20027;-85
2024/01/01 03:16:04;;;;;;;17.33;1.63;;;;;;;5.03;100.00;99775.94;5078641;28;20118;-85
2024/01/01 03:18:32;;;;;;;13.48;1.30;;;;;;;5.01;100.00;99775.31;5078409;28;20130;-86
2024/01/01 03:21:03;;;;;;;22.48;1.75;;;;;;;5.05;100.00;99757.75;5079129;28;20032;-86
2024/01/01 03:23:29;;;;;;;14.40;1.60;;;;;;;4.97;100.00;99770.56;5080123;28;20135;-85
2024/01/01 03:25:56;;;;;;;16.13;1.50;;;;;;;4.94;100.00;99776.34;5097997;28;20110;-85
2024/01/01 03:28:22;;;;;;;13.43;2.15;;;;;;;4.97;100.00;99771.38;5099567;28;20073;-85
2024/01/01 03:30:47;;;;;;;12.00;2.53;;;;;;;4.97;100.00;99784.00;5116770;28;20379;-85
2024/01/01 03:33:13;;;;;;;11.35;1.50;;;;;;;4.98;100.00;99782.97;5117140;28;20126;-85
2024/01/01 03:35:38;;;;;;;14.10;1.90;;;;;;;5.02;100.00;99773.44;5099403;28;20123;-86
2024/01/01 03:38:04;;;;;;;11.47;2.00;;;;;;;5.01;100.00;99786.06;5065923;28;20072;-85
2024/01/01 03:40:30;;;;;;;14.73;2.00;;;;;;;5.07;100.00;99777.19;5099892;28;20031;-86
2024/01/01 03:42:56;;;;;;;13.33;1.90;;;;;;;5.05;100.00;99784.63;5117701;28;20486;-85
2024/01/01 03:45:21;;;;;;;13.38;2.13;;;;;;;5.05;100.00;99784.63;5082958;28;20035;-85
2024/01/01 03:47:47;;;;;;;16.70;2.50;;;;;;;5.04;100.00;99817.09;5082804;28;20107;-86
2024/01/01 03:50:14;;;;;;;18.88;2.10;;;;;;;5.07;100.00;99785.25;5082273;28;20512;-86
2024/01/01 03:52:40;;;;;;;8.82;1.40;;;;;;;5.10;100.00;99792.09;5099059;28;20033;-86
2024/01/01 03:55:06;;;;;;;10.75;1.40;;;;;;;5.13;100.00;99786.28;5098707;28;20383;-85
2024/01/01 03:57:33;;;;;;;11.70;1.63;;;;;;;5.07;100.00;99795.19;5098885;28;20543;-85
2024/01/01 03:59:58;;;;;;;11.45;1.20;;;;;;;5.05;100.00;99803.47;5099362;28;20133;-86
2024/01/01 04:02:24;;;;;;;6.70;1.10;;;;;;;5.07;100.00;99798.69;5082422;28;20057;-86
2024/01/01 04:04:50;;;;;;;12.30;1.67;;;;;;;5.00;100.00;99797.03;5081633;28;20502;-87
2024/01/01 04:07:18;;;;;;;12.15;1.40;;;;;;;5.03;100.00;99781.31;5082424;28;20038;-86
2024/01/01 04:09:46;;;;;;;10.10;1.13;;;;;;;5.08;100.00;99786.91;5098800;28;20576;-86
2024/01/01 04:12:12;;;;;;;13.52;1.23;;;;;;;5.05;100.00;99799.94;5099450;28;20031;-86
2024/01/01 04:14:39;;;;;;;11.40;1.30;;;;;;;5.10;100.00;99786.72;5098727;28;20509;-86
2024/01/01 04:17:05;;;;;;;11.43;1.45;;;;;;;5.09;100.00;99790.41;5098750;28;20115;-86
2024/01/01 04:19:30;;;;;;;15.80;1.70;;;;;;;5.08;100.00;99794.16;5064696;28;20087;-86
2024/01/01 04:21:56;;;;;;;8.33;1.57;;;;;;;5.02;100.00;99792.28;5098962;28;20027;-86
2024/01/01 04:24:21;;;;;;;9.38;1.70;;;;;;;5.05;100.00;99789.19;5098512;28;20031;-87
2024/01/01 04:26:47;;;;;;;13.07;1.10;;;;;;;5.11;100.00;99799.13;5098824;28;20039;-86
2024/01/01 04:29:14;;;;;;;13.87;1.63;;;;;;;5.22;100.00;99805.75;5115522;28;20080;-86
2024/01/01 04:31:40;;;;;;;5.03;0.77;;;;;;;5.24;100.00;99820.66;5082098;28;20031;-86
2024/01/01 04:34:05;;;;;;;9.63;1.30;;;;;;;5.38;100.00;99786.50;5099249;28;20047;-86
2024/01/01 04:36:31;;;;;;;9.15;1.85;;;;;;;5.33;100.00;99791.69;5116716;28;20498;-86
2024/01/01 04:38:56;;;;;;;9.17;1.50;;;;;;;5.38;100.00;99796.44;5097787;28;20080;-86
2024/01/01 04:41:22;;;;;;;8.33;1.30;;;;;;;5.39;100.00;99798.13;5097973;28;20066;-86
2024/01/01 04:43:49;;;;;;;10.50;1.53;;;;;;;5.41;100.00;99793.34;5098932;28;20033;-87
2024/01/01 04:46:15;;;;;;;10.90;1.38;;;;;;;5.44;100.00;99795.63;5082410;28;20289;-86
2024/01/01 04:48:43;;;;;;;6.85;1.33;;;;;;;5.43;100.00;99792.09;5098411;28;20145;-87
2024/01/01 04:51:08;;;;;;;13.17;1.60;;;;;;;5.43;100.00;99800.19;5097992;28;20023;-86
2024/01/01 04:53:34;;;;;;;11.82;1.52;;;;;;;5.38;100.00;99804.53;5098528;28;20028;-87
2024/01/01 04:55:59;;;;;;;10.63;1.07;;;;;;;5.34;100.00;99811.34;5097934;28;20380;-86
2024/01/01 04:58:25;;;;;;;9.80;1.77;;;;;;;5.35;100.00;99821.91;5097661;28;20027;-87
2024/01/01 05:00:50;;;;;;;12.05;1.25;;;;;;;5.35;100.00;99821.06;5116522;28;20031;-87
2024/01/01 05:03:18;;;;;;;15.33;2.33;;;;;;;5.27;100.00;99817.56;5097453;28;20531;-86
2024/01/01 05:05:44;;;;;;;8.18;0.88;;;;;;;5.30;100.00;99818.16;5115718;28;20035;-87
2024/01/01 05:08:12;;;;;;;17.60;1.60;;;;;;;5.30;100.00;99823.53;5097491;28;20019;-86
2024/01/01 05:10:38;;;;;;;10.13;1.33;;;;;;;5.33;100.00;99820.44;5097439;28;20098;-87
2024/01/01 05:13:03;;;;;;;12.05;1.20;;;;;;;5.27;100.00;99824.81;5097433;28;20035;-87
2024/01/01 05:15:29;;;;;;;12.00;1.50;;;;;;;5.34;100.00;99838.25;5097252;28;20080;-86
2024/01/01 05:18:02;;;;;;;10.20;1.40;;;;;;;5.44;100.00;99833.28;5097738;28;20044;-87
2024/01/01 05:20:27;;;;;;;8.98;1.13;;;;;;;5.46;100.00;99823.13;5080387;28;20081;-87
2024/01/01 05:22:53;;;;;;;11.07;1.17;;;;;;;5.50;100.00;99828.94;5097509;28;20031;-87
2024/01/01 05:25:18;;;;;;;11.20;1.30;;;;;;;5.55;100.00;99851.50;5115276;28;20020;-86
2024/01/01 05:27:44;;;;;;;7.90;1.10;;;;;;;5.58;100.00;99836.78;5080232;28;20038;-87
2024/01/01 05:30:10;;;;;;;14.37;1.20;;;;;;;5.60;100.00;99837.44;5097732;28;20058;-87
2024/01/01 05:32:35;;;;;;;12.93;1.65;;;;;;;5.60;100.00;99835.56;5080387;28;20039;-86
2024/01/01 05:35:00;;;;;;;10.73;0.93;;;;;;;5.67;100.00;99851.72;5080435;28;20028;-87
2024/01/01 05:37:26;;;;;;;8.97;1.17;;;;;;;5.73;100.00;99839.28;5080222;28;20088;-87
2024/01/01 05:39:52;;;;;;;7.10;1.33;;;;;;;5.70;100.00;99840.53;5096815;28;20041;-86
2024/01/01 05:42:18;;;;;;;13.65;1.65;;;;;;;5.74;100.00;99846.31;5096940;28;20495;-87
2024/01/01 05:44:44;;;;;;;7.00;1.45;;;;;;;5.72;100.00;99851.91;5096947;28;20023;-87
2024/01/01 05:47:12;;;;;;;10.33;1.30;;;;;;;5.70;100.00;99850.44;5113891;28;20031;-87
2024/01/01 05:49:38;;;;;;;8.77;1.00;;;;;;;5.61;100.00;99866.00;5096707;28;20020;-87
2024/01/01 05:52:03;;;;;;;9.03;1.20;;;;;;;5.61;100.00;99863.31;5080382;28;20042;-88
2024/01/01 05:54:29;;;;;;;12.15;1.23;;;;;;;5.56;100.00;99863.09;5096753;28;20552;-87
2024/01/01 05:56:55;;;;;;;9.23;1.37;;;;;;;5.52;100.00;99867.22;5115093;28;20023;-87
2024/01/01 05:59:20;;;;;;;10.13;1.50;;;;;;;5.36;100.00;99871.13;5096462;28;20039;-86
2024/01/01 06:01:48;;;;;;;12.10;1.10;;;;;;;5.25;100.00;99875.25;5096376;28;20281;-87
2024/01/01 06:04:14;;;;;;;10.57;1.00;;;;;;;5.15;100.00;99874.81;5096220;28;20059;-86
2024/01/01 06:06:39;;;;;;;12.32;1.45;;;;;;;5.10;100.00;99880.81;5096394;28;20457;-87
2024/01/01 06:09:05;;;;;;;10.60;2.00;;;;;;;5.08;100.00;99880.22;5096584;28;20590;-86
2024/01/01 06:11:33;;;;;;;8.40;1.23;;;;;;;5.01;100.00;99888.25;5096282;28;20031;-87
2024/01/01 06:13:59;;;;;;;6.22;1.38;;;;;;;5.06;100.00;99899.22;5096414;28;20027;-87
2024/01/01 06:16:32;;;;;;;14.95;1.80;;;;;;;5.02;100.00;99887.22;5096418;28;20024;-87
2024/01/01 06:18:58;;;;;;;5.45;1.00;;;;;;;5.01;100.00;99884.72;5079211;28;20055;-87
2024/01/01 06:21:29;;;;;;;9.05;1.48;;;;;;;5.05;100.00;99902.94;5097607;28;20043;-88
2024/01/01 06:23:54;;;;;;;8.98;1.45;;;;;;;5.12;100.00;99886.00;5096319;28;20027;-87
2024/01/01 06:26:20;;;;;;;11.03;1.00;;;;;;;5.15;100.00;99918.66;5097081;28;20034;-87
2024/01/01 06:28:46;;;;;;;5.80;1.15;;;;;;;5.19;100.00;99900.28;5096167;28;20493;-87
2024/01/01 06:31:14;;;;;;;10.40;1.63;;;;;;;5.14;100.00;99919.72;5114976;28;20470;-87
2024/01/01 06:33:42;;;;;;;9.95;1.08;;;;;;;5.15;100.00;99920.53;5096323;28;20491;-87
2024/01/01 06:36:10;;;;;;;9.25;1.10;;;;;;;5.19;100.00;99928.00;5096455;28;20034;-87
2024/01/01 06:38:38;;;;;;;11.13;1.00;;;;;;;5.18;100.00;99926.34;5095792;28;20031;-88
2024/01/01 06:41:05;;;;;;;11.60;1.42;;;;;;;5.21;100.00;99947.47;5113095;28;20019;-87
2024/01/01 06:43:31;;;;;;;10.38;1.45;;;;;;;5.27;100.00;99935.91;5096346;28;20491;-87
2024/01/01 06:45:57;;;;;;;8.50;1.27;;;;;;;5.37;100.00;99958.88;5095733;28;20020;-87
2024/01/01 06:48:27;;;;;;;10.53;1.63;;;;;;;5.34;100.00;99938.59;5078900;28;20032;-87
2024/01/01 06:50:54;;;;;;;10.07;2.10;;;;;;;5.40;100.00;99945.88;5096478;28;20032;-88
2024/01/01 06:53:20;;;;;;;9.57;1.55;;;;;;;5.51;100.00;99935.53;5096070;28;20184;-87
2024/01/01 06:55:48;;;;;;;9.37;1.17;;;;;;;5.57;100.00;99948.16;5113130;28;20519;-87
2024/01/01 06:58:14;;;;;;;9.98;1.40;;;;;;;5.61;100.00;99954.81;5095501;28;20114;-88
2024/01/01 07:00:39;;;;;;;7.53;1.00;;;;;;;5.64;100.00;99962.47;5095022;28;20118;-87
2024/01/01 07:03:07;;;;;;;8.77;1.17;;;;;;;5.60;100.00;99967.41;5113082;28;20039;-87
2024/01/01 07:05:33;;;;;;;12.35;1.33;;;;;;;5.48;100.00;99960.97;5114501;28;20032;-87
2024/01/01 07:07:59;;;;;;;7.38;0.85;;;;;;;5.47;100.00;99971.94;5095465;28;20031;-87
2024/01/01 07:10:25;;;;;;;9.13;1.20;;;;;;;5.44;100.00;99971.31;5113550;28;20024;-87
2024/01/01 07:12:55;;;;;;;9.57;1.60;;;;;;;5.47;100.00;99983.53;5078637;28;20031;-87
2024/01/01 07:15:21;;;;;;;12.93;2.03;;;;;;;5.52;100.00;99986.47;5079666;28;20116;-87
2024/01/01 07:17:49;;;;;;;9.00;1.50;;;;;;;5.53;100.00;99989.97;5095498;28;20028;-86
2024/01/01 07:20:15;;;;;;;12.85;1.33;;;;;;;5.44;100.00;99983.94;5062515;28;20039;-86
2024/01/01 07:22:43;;;;;;;11.15;1.73;;;;;;;5.42;100.00;99996.78;5078982;28;20043;-88
2024/01/01 07:25:13;;;;;;;12.32;1.60;;;;;;;5.39;100.00;99995.31;5112513;28;20088;-88
2024/01/01 07:27:42;;;;;;;11.00;1.02;;;;;;;5.46;100.00;99995.31;5113997;28;20035;-88
2024/01/01 07:30:10;;;;;;;10.75;1.10;;;;;;;5.43;100.00;99998.41;5095988;28;20024;-87
2024/01/01 07:32:39;;;;;;;11.95;1.48;;;;;;;5.51;100.00;99994.72;5095810;28;20027;-87
2024/01/01 07:35:06;;;;;;;8.70;1.17;;;;;;;5.49;100.00;100002.16;5096420;28;20027;-87
2024/01/01 07:37:31;;;;;;;11.85;1.55;;;;;;;5.53;100.00;100031.16;5079193;28;20091;-88
2024/01/01 07:40:04;;;;;;;12.17;1.63;;;;;;;5.55;100.00;100031.78;5096813;28;20115;-88
2024/01/01 07:42:32;;;;;;;12.88;1.45;;;;;;;5.55;100.00;100006.72;5095594;28;20059;-88
2024/01/01 07:44:58;;;;;;;5.47;0.75;;;;;;;5.57;100.00;100010.88;5113770;28;20072;-88
2024/01/01 07:47:23;;;;;;;8.27;1.23;;;;;;;5.51;100.00;100014.38;5095915;28;20028;-88
2024/01/01 07:49:57;;;;;;;8.07;1.10;;;;;;;5.51;100.00;100005.50;5095980;28;20490;-89
2024/01/01 07:52:27;;;;;;;10.45;1.63;;;;;;;5.55;100.00;100009.41;5096353;28;20153;-88
2024/01/01 07:55:02;;;;;;;9.60;1.30;;;;;;;5.40;100.00;100012.28;5080056;28;20080;-88
2024/01/01 07:57:28;;;;;;;7.07;1.30;;;;;;;5.34;100.00;100027.34;5095882;28;20028;-88
2024/01/01 07:59:58;;;;;;;16.30;1.58;;;;;;;5.27;100.00;100038.09;5096089;28;20030;-88
2024/01/01 08:02:31;;;;;;;15.90;1.75;;;;;;;5.26;100.00;100031.06;5096262;28;20414;-88
2024/01/01 08:05:10;;;;;;;9.53;1.07;;;;;;;5.27;100.00;100038.09;5035470;28;20076;-89
2024/01/01 08:07:40;;;;;;;9.57;1.13;;;;;;;5.23;100.00;100050.28;5095658;28;20027;-88
2024/01/01 08:10:06;;;;;;;13.23;2.00;;;;;;;5.25;100.00;100055.47;5095019;28;20027;-87
2024/01/01 08:12:31;;;;;;;9.75;1.20;;;;;;;5.30;100.00;100068.31;5080090;28;20035;-87
2024/01/01 08:14:57;;;;;;;7.90;0.95;;;;;;;5.39;100.00;100051.81;5099467;28;20032;-87
2024/01/01 08:17:28;;;;;;;9.65;1.20;;;;;;;5.40;100.00;100063.38;5115922;28;20024;-89
2024/01/01 08:19:54;;;;;;;13.70;1.17;;;;;;;5.37;100.00;100074.56;5080603;28;20108;-88
2024/01/01 08:22:21;;;;;;;13.00;1.63;;;;;;;5.30;100.00;100068.31;5098814;28;20024;-87
2024/01/01 08:24:47;;;;;;;15.83;1.40;;;;;;;5.19;100.00;100083.16;5081815;28;20039;-87
2024/01/01 08:27:12;;;;;;;10.90;1.35;;;;;;;5.16;100.00;100080.88;5098353;28;20031;-86
2024/01/01 08:29:38;;;;;;;12.00;1.17;;;;;;;5.12;100.00;100076.91;5116778;28;20028;-88
2024/01/01 08:32:04;;;;;;;9.20;1.30;;;;;;;5.10;100.00;100080.63;5098868;28;20482;-87
2024/01/01 08:34:40;;;;;;;10.60;1.58;;;;;;;5.09;100.00;100097.81;5116715;28;20463;-87
2024/01/01 08:37:10;;;;;;;9.68;1.63;;;;;;;5.12;100.00;100095.75;5098127;28;20116;-87
2024/01/01 08:39:35;;;;;;;6.90;1.70;;;;;;;5.18;100.00;100092.25;5081210;28;20181;-87
2024/01/01 08:42:01;;;;;;;8.68;1.38;;;;;;;5.21;100.00;100107.97;5098710;28;20101;-86
2024/01/01 08:44:26;;;;;;;13.73;1.60;;;;;;;5.23;100.00;100122.09;5116497;28;20034;-87
2024/01/01 08:46:54;;;;;;;13.00;2.30;;;;;;;5.22;100.00;100112.34;5098196;28;20034;-86
2024/01/01 08:49:20;;;;;;;16.02;2.15;;;;;;;5.20;100.00;100122.47;5098043;28;20034;-86
2024/01/01 08:51:45;;;;;;;12.93;1.50;;;;;;;5.19;100.00;100113.56;5098287;28;20039;-86
2024/01/01 08:54:13;;;;;;;9.60;1.80;;;;;;;5.18;100.00;100137.97;5098361;28;20034;-86
2024/01/01 08:56:41;;;;;;;11.23;1.45;;;;;;;5.18;100.00;100137.97;5081527;28;20059;-86
2024/01/01 08:59:09;;;;;;;14.52;1.80;;;;;;;5.20;100.00;100133.25;5097959;28;20051;-86
2024/01/01 09:01:35;;;;;;;14.05;1.60;;;;;;;5.24;100.00;100129.09;5098269;28;20036;-85
2024/01/01 09:04:04;;;;;;;14.32;1.90;;;;;;;5.23;100.00;100135.53;5098330;28;20126;-85
2024/01/01 09:06:33;;;;;;;10.83;1.53;;;;;;;5.22;100.00;100148.13;5114740;28;20019;-85
2024/01/01 09:08:58;;;;;;;9.48;1.23;;;;;;;5.23;100.00;100130.97;5097686;28;20030;-85
2024/01/01 09:11:26;;;;;;;9.27;1.70;;;;;;;5.21;100.00;100149.19;5081466;28;20110;-85
2024/01/01 09:13:51;;;;;;;16.65;2.33;;;;;;;5.26;100.00;100154.78;5115965;28;20277;-85
2024/01/01 09:16:17;;;;;;;11.33;2.13;;;;;;;5.29;100.00;100156.25;5080405;28;20045;-85
2024/01/01 09:18:42;;;;;;;10.68;2.00;;;;;;;5.29;100.00;100169.69;5114233;28;20296;-86
2024/01/01 09:21:17;;;;;;;13.73;1.70;;;;;;;5.31;100.00;100158.75;5097633;28;20472;-84
2024/01/01 09:23:42;;;;;;;23.17;2.35;;;;;;;5.24;100.00;100170.31;5115342;28;20032;-85
2024/01/01 09:26:13;;;;;;;16.77;1.80;;;;;;;5.24;100.00;100180.22;5080425;28;20047;-85
2024/01/01 09:28:39;;;;;;;15.93;1.73;;;;;;;5.23;100.00;100178.56;5097852;28;20371;-85
2024/01/01 09:31:04;;;;;;;16.63;2.00;;;;;;;5.22;100.00;100183.09;5097545;28;20031;-85
2024/01/01 09:33:32;;;;;;;18.20;1.97;;;;;;;5.25;100.00;100181.88;5096946;28;20032;-85
2024/01/01 09:35:58;;;;;;;15.07;1.67;;;;;;;5.27;100.00;100188.72;5080326;28;20122;-85
2024/01/01 09:38:23;;;;;;;11.77;1.67;;;;;;;5.29;100.00;100185.84;5080873;28;20452;-85
2024/01/01 09:40:49;;;;;;;14.00;1.50;;;;;;;5.27;100.00;100202.19;5079990;28;20480;-85
2024/01/01 09:43:18;;;;;;;17.70;1.97;;;;;;;5.29;100.00;100193.91;5079858;28;20038;-86
2024/01/01 09:45:49;;;;;;;16.52;2.05;;;;;;;5.33;100.00;100188.97;5096988;28;20020;-85
2024/01/01 09:48:14;;;;;;;14.35;2.17;;;;;;;5.34;100.00;100201.38;5096899;28;20027;-85
2024/01/01 09:50:43;;;;;;;15.52;2.05;;;;;;;5.33;100.00;100226.63;5114889;28;20073;-86
2024/01/01 09:53:09;;;;;;;17.60;1.70;;;;;;;5.34;100.00;100207.59;5097190;28;20031;-86
2024/01/01 09:55:35;;;;;;;16.67;2.22;;;;;;;5.38;100.00;100211.56;5114800;28;20015;-86
2024/01/01 09:58:00;;;;;;;17.95;2.50;;;;;;;5.38;100.00;100213.44;5096800;28;20016;-85
2024/01/01 10:00:26;;;;;;;19.33;2.30;;;;;;;5.39;100.00;100232.06;5079058;28;20047;-84
2024/01/01 10:03:10;;;;;;;16.73;2.07;;;;;;;5.47;100.00;100227.56;5096649;28;20035;-86
2024/01/01 10:05:39;;;;;;;17.20;1.98;;;;;;;5.52;100.00;100222.41;5096745;28;20037;-85
2024/01/01 10:08:09;;;;;;;21.15;2.50;;;;;;;5.55;100.00;100246.22;5096399;28;20031;-86
2024/01/01 10:10:34;;;;;;;16.75;2.83;;;;;;;5.51;100.00;100236.91;5097307;28;20032;-86
2024/01/01 10:13:10;;;;;;;13.13;1.63;;;;;;;5.47;100.00;100241.84;5096801;28;20356;-86
2024/01/01 10:15:40;;;;;;;21.58;3.05;;;;;;;5.45;100.00;100227.75;5096593;28;20072;-85
2024/01/01 10:18:16;;;;;;;14.90;2.83;;;;;;;5.44;100.00;100234.97;5096093;28;20376;-85
2024/01/01 10:20:43;;;;;;;12.82;1.67;;;;;;;5.47;100.00;100243.69;5096749;28;20040;-85
2024/01/01 10:23:20;;;;;;;9.75;1.90;;;;;;;5.47;100.00;100241.84;5096376;28;20035;-85
2024/01/01 10:25:52;;;;;;;16.95;3.03;;;;;;;5.54;100.00;100250.78;5096249;28;20039;-86
2024/01/01 10:28:20;;;;;;;17.83;2.28;;;;;;;5.54;100.00;100236.50;5097035;28;20071;-86
2024/01/01 10:30:49;;;;;;;16.20;3.13;;;;;;;5.56;100.00;100253.28;5096045;28;20063;-85
2024/01/01 10:33:19;;;;;;;15.35;2.50;;;;;;;5.61;100.00;100248.16;5079754;28;20024;-86
2024/01/01 10:35:44;;;;;;;17.90;2.67;;;;;;;5.63;100.00;100257.66;5095308;28;20039;-85
2024/01/01 10:38:14;;;;;;;19.85;2.45;;;;;;;5.71;100.00;100253.16;5095852;28;20032;-86
2024/01/01 10:40:46;;;;;;;16.70;2.40;;;;;;;5.73;100.00;100270.78;5096328;28;20062;-85
2024/01/01 10:43:18;;;;;;;14.90;2.27;;;;;;;5.72;100.00;100261.03;5095882;28;20024;-85
2024/01/01 10:45:45;;;;;;;18.60;3.45;;;;;;;5.74;100.00;100261.69;5096036;28;20024;-86
2024/01/01 10:48:14;;;;;;;16.98;2.40;;;;;;;5.76;100.00;100273.06;5096380;28;20033;-85
2024/01/01 10:50:48;;;;;;;16.40;2.70;;;;;;;5.79;100.00;100277.25;5112672;28;20061;-86
2024/01/01 10:53:31;;;;;;;21.92;2.85;;;;;;;5.82;100.00;100287.59;5114275;28;20027;-85
2024/01/01 10:56:25;;;;;;;18.00;2.10;;;;;;;5.86;100.00;100269.19;5096535;28;20073;-85
2024/01/01 10:58:57;;;;;;;16.88;3.15;;;;;;;6.01;100.00;100277.16;5113189;28;20472;-85
2024/01/01 11:01:24;;;;;;;17.13;2.05;;;;;;;5.97;100.00;100276.75;5096431;28;20063;-85
2024/01/01 11:03:53;;;;;;;16.38;1.85;;;;;;;5.89;100.00;100264.25;5095663;28;20071;-84
2024/01/01 11:06:33;;;;;;;19.15;2.72;;;;;;;5.88;100.00;100277.91;5096662;28;20348;-85
2024/01/01 11:09:20;;;;;;;18.10;2.47;;;;;;;5.92;100.00;100282.69;5096103;28;20059;-84
2024/01/01 11:11:50;;;;;;;19.10;2.35;;;;;;;6.06;100.00;100280.94;5095331;28;20020;-86
2024/01/01 11:14:34;;;;;;;20.67;2.60;;;;;;;6.09;100.00;100293.16;5095165;28;20392;-85
2024/01/01 11:17:06;;;;;;;22.52;2.53;;;;;;;6.26;100.00;100294.50;5095895;28;20023;-85
2024/01/01 11:19:38;;;;;;;28.50;3.40;;;;;;;6.50;100.00;100278.84;5114398;28;20258;-85
2024/01/01 11:22:18;;;;;;;26.03;3.37;;;;;;;6.56;100.00;100296.88;5095634;28;20031;-85
2024/01/01 11:24:45;;;;;;;23.02;3.38;;;;;;;6.39;100.00;100284.81;5095536;28;20092;-87